sensor_id;sensor_type;location;lat;lon;timestamp;temperature;humidity
36458;DHT22;22480;50.546;12.292;2022-10-16T00:01:16;14.80;99.90
36458;DHT22;22480;50.546;12.292;2022-10-16T00:03:43;14.80;99.90
36458;DHT22;22480;50.546;12.292;2022-10-16T00:06:09;14.70;99.90
36458;DHT22;22480;50.546;12.292;2022-10-16T00:08:36;14.60;99.90
36458;DHT22;22480;50.546;12.292;2022-10-16T00:11:04;14.50;99.90
36458;DHT22;22480;50.546;12.292;2022-10-16T00:13:31;14.50;99.90
36458;DHT22;22480;50.546;12.292;2022-10-16T00:15:58;14.50;99.90
36458;DHT22;22480;50.546;12.292;2022-10-16T00:18:26;14.60;99.90
36458;DHT22;22480;50.546;12.292;2022-10-16T00:20:52;14.70;99.90
36458;DHT22;22480;50.546;12.292;2022-10-16T00:23:18;14.80;99.90
36458;DHT22;22480;50.546;12.292;2022-10-16T00:25:44;14.80;99.90
36458;DHT22;22480;50.546;12.292;2022-10-16T00:28:10;14.90;99.90
36458;DHT22;22480;50.546;12.292;2022-10-16T00:30:39;14.90;99.90
36458;DHT22;22480;50.546;12.292;2022-10-16T00:33:05;14.80;99.90
36458;DHT22;22480;50.546;12.292;2022-10-16T00:35:31;14.90;99.90
36458;DHT22;22480;50.546;12.292;2022-10-16T00:37:56;14.90;99.90
36458;DHT22;22480;50.546;12.292;2022-10-16T00:40:22;14.90;99.90
36458;DHT22;22480;50.546;12.292;2022-10-16T00:42:48;14.90;99.90
36458;DHT22;22480;50.546;12.292;2022-10-16T00:45:14;14.90;99.90
36458;DHT22;22480;50.546;12.292;2022-10-16T00:47:43;14.90;99.90
36458;DHT22;22480;50.546;12.292;2022-10-16T00:50:30;14.90;99.90
36458;DHT22;22480;50.546;12.292;2022-10-16T00:52:58;14.90;99.90
36458;DHT22;22480;50.546;12.292;2022-10-16T00:55:24;14.90;99.90
36458;DHT22;22480;50.546;12.292;2022-10-16T00:57:51;14.90;99.90
36458;DHT22;22480;50.546;12.292;2022-10-16T01:00:21;14.80;99.90
36458;DHT22;22480;50.546;12.292;2022-10-16T01:02:54;14.80;99.90
36458;DHT22;22480;50.546;12.292;2022-10-16T01:05:22;14.70;99.90
36458;DHT22;22480;50.546;12.292;2022-10-16T01:07:56;14.70;99.90
36458;DHT22;22480;50.546;12.292;2022-10-16T01:13:18;14.60;99.90
36458;DHT22;22480;50.546;12.292;2022-10-16T01:18:18;14.60;99.90
36458;DHT22;22480;50.546;12.292;2022-10-16T01:20:58;14.60;99.90
36458;DHT22;22480;50.546;12.292;2022-10-16T01:28:52;14.80;99.90
36458;DHT22;22480;50.546;12.292;2022-10-16T01:31:21;14.70;99.90
36458;DHT22;22480;50.546;12.292;2022-10-16T01:34:00;14.70;99.90
36458;DHT22;22480;50.546;12.292;2022-10-16T01:36:35;14.80;99.90
36458;DHT22;22480;50.546;12.292;2022-10-16T01:39:02;14.80;99.90
36458;DHT22;22480;50.546;12.292;2022-10-16T01:41:32;14.80;99.90
36458;DHT22;22480;50.546;12.292;2022-10-16T01:44:21;14.90;99.90
36458;DHT22;22480;50.546;12.292;2022-10-16T01:46:50;14.90;99.90
36458;DHT22;22480;50.546;12.292;2022-10-16T01:49:18;14.90;99.90
36458;DHT22;22480;50.546;12.292;2022-10-16T01:51:47;14.90;99.90
36458;DHT22;22480;50.546;12.292;2022-10-16T01:54:16;15.00;99.90
36458;DHT22;22480;50.546;12.292;2022-10-16T01:56:43;15.00;99.90
36458;DHT22;22480;50.546;12.292;2022-10-16T01:59:12;15.00;99.90
36458;DHT22;22480;50.546;12.292;2022-10-16T02:01:42;15.00;99.90
36458;DHT22;22480;50.546;12.292;2022-10-16T02:04:15;15.00;99.90
36458;DHT22;22480;50.546;12.292;2022-10-16T02:06:42;14.90;99.90
36458;DHT22;22480;50.546;12.292;2022-10-16T02:09:08;14.90;99.90
36458;DHT22;22480;50.546;12.292;2022-10-16T02:11:35;14.80;99.90
36458;DHT22;22480;50.546;12.292;2022-10-16T02:14:06;14.80;99.90
36458;DHT22;22480;50.546;12.292;2022-10-16T02:16:34;14.70;99.90
36458;DHT22;22480;50.546;12.292;2022-10-16T02:19:01;14.70;99.90
36458;DHT22;22480;50.546;12.292;2022-10-16T02:21:31;14.60;99.90
36458;DHT22;22480;50.546;12.292;2022-10-16T02:24:09;14.70;99.90
36458;DHT22;22480;50.546;12.292;2022-10-16T02:26:51;14.60;99.90
36458;DHT22;22480;50.546;12.292;2022-10-16T02:29:23;14.50;99.90
36458;DHT22;22480;50.546;12.292;2022-10-16T02:31:55;14.50;99.90
36458;DHT22;22480;50.546;12.292;2022-10-16T02:34:24;14.30;99.90
36458;DHT22;22480;50.546;12.292;2022-10-16T02:36:51;14.40;99.90
36458;DHT22;22480;50.546;12.292;2022-10-16T02:39:18;14.30;99.90
36458;DHT22;22480;50.546;12.292;2022-10-16T02:41:45;14.30;99.90
36458;DHT22;22480;50.546;12.292;2022-10-16T02:44:11;14.30;99.90
36458;DHT22;22480;50.546;12.292;2022-10-16T02:46:37;14.30;99.90
36458;DHT22;22480;50.546;12.292;2022-10-16T02:49:02;14.30;99.90
36458;DHT22;22480;50.546;12.292;2022-10-16T02:51:28;14.30;99.90
36458;DHT22;22480;50.546;12.292;2022-10-16T02:53:54;14.40;99.90
36458;DHT22;22480;50.546;12.292;2022-10-16T02:56:20;14.40;99.90
36458;DHT22;22480;50.546;12.292;2022-10-16T02:58:46;14.40;99.90
36458;DHT22;22480;50.546;12.292;2022-10-16T03:01:12;14.50;99.90
36458;DHT22;22480;50.546;12.292;2022-10-16T03:03:39;14.50;99.90
36458;DHT22;22480;50.546;12.292;2022-10-16T03:06:05;14.50;99.90
36458;DHT22;22480;50.546;12.292;2022-10-16T03:08:31;14.50;99.90
36458;DHT22;22480;50.546;12.292;2022-10-16T03:10:57;14.50;99.90
36458;DHT22;22480;50.546;12.292;2022-10-16T03:13:23;14.50;99.90
36458;DHT22;22480;50.546;12.292;2022-10-16T03:15:48;14.50;99.90
36458;DHT22;22480;50.546;12.292;2022-10-16T03:18:15;14.50;99.90
36458;DHT22;22480;50.546;12.292;2022-10-16T03:20:42;14.60;99.90
36458;DHT22;22480;50.546;12.292;2022-10-16T03:23:07;14.60;99.90
36458;DHT22;22480;50.546;12.292;2022-10-16T03:25:33;14.50;99.90
36458;DHT22;22480;50.546;12.292;2022-10-16T03:27:59;14.40;99.90
36458;DHT22;22480;50.546;12.292;2022-10-16T03:30:25;14.30;99.90
36458;DHT22;22480;50.546;12.292;2022-10-16T03:32:51;14.20;99.90
36458;DHT22;22480;50.546;12.292;2022-10-16T03:35:20;14.20;99.90
36458;DHT22;22480;50.546;12.292;2022-10-16T03:37:46;14.10;99.90
36458;DHT22;22480;50.546;12.292;2022-10-16T03:40:12;14.10;99.90
36458;DHT22;22480;50.546;12.292;2022-10-16T03:42:37;14.10;99.90
36458;DHT22;22480;50.546;12.292;2022-10-16T03:45:04;14.00;99.90
36458;DHT22;22480;50.546;12.292;2022-10-16T03:47:30;14.00;99.90
36458;DHT22;22480;50.546;12.292;2022-10-16T03:49:58;13.90;99.90
36458;DHT22;22480;50.546;12.292;2022-10-16T03:52:24;13.90;99.90
36458;DHT22;22480;50.546;12.292;2022-10-16T03:54:50;13.90;99.90
36458;DHT22;22480;50.546;12.292;2022-10-16T03:57:17;13.90;99.90
36458;DHT22;22480;50.546;12.292;2022-10-16T03:59:42;13.90;99.90
36458;DHT22;22480;50.546;12.292;2022-10-16T04:02:09;13.90;99.90
36458;DHT22;22480;50.546;12.292;2022-10-16T04:04:34;13.90;99.90
36458;DHT22;22480;50.546;12.292;2022-10-16T04:07:00;13.90;99.90
36458;DHT22;22480;50.546;12.292;2022-10-16T04:09:26;13.90;99.90
36458;DHT22;22480;50.546;12.292;2022-10-16T04:11:52;13.90;99.90
36458;DHT22;22480;50.546;12.292;2022-10-16T04:14:17;13.90;99.90
36458;DHT22;22480;50.546;12.292;2022-10-16T04:16:43;13.90;99.90
36458;DHT22;22480;50.546;12.292;2022-10-16T04:19:09;13.90;99.90
36458;DHT22;22480;50.546;12.292;2022-10-16T04:21:36;13.90;99.90
36458;DHT22;22480;50.546;12.292;2022-10-16T04:24:02;13.90;99.90
36458;DHT22;22480;50.546;12.292;2022-10-16T04:26:28;13.90;99.90
36458;DHT22;22480;50.546;12.292;2022-10-16T04:28:54;13.90;99.90
36458;DHT22;22480;50.546;12.292;2022-10-16T04:31:20;13.90;99.90
36458;DHT22;22480;50.546;12.292;2022-10-16T04:33:46;13.80;99.90
36458;DHT22;22480;50.546;12.292;2022-10-16T04:36:12;13.80;99.90
36458;DHT22;22480;50.546;12.292;2022-10-16T04:38:39;13.80;99.90
36458;DHT22;22480;50.546;12.292;2022-10-16T04:41:06;13.80;99.90
36458;DHT22;22480;50.546;12.292;2022-10-16T04:43:33;13.80;99.90
36458;DHT22;22480;50.546;12.292;2022-10-16T04:45:58;13.80;99.90
36458;DHT22;22480;50.546;12.292;2022-10-16T04:48:24;13.70;99.90
36458;DHT22;22480;50.546;12.292;2022-10-16T04:50:50;13.70;99.90
36458;DHT22;22480;50.546;12.292;2022-10-16T04:53:16;13.70;99.90
36458;DHT22;22480;50.546;12.292;2022-10-16T04:55:42;13.70;99.90
36458;DHT22;22480;50.546;12.292;2022-10-16T04:58:08;13.70;99.90
36458;DHT22;22480;50.546;12.292;2022-10-16T05:00:34;13.70;99.90
36458;DHT22;22480;50.546;12.292;2022-10-16T05:03:00;13.70;99.90
36458;DHT22;22480;50.546;12.292;2022-10-16T05:05:27;13.70;99.90
36458;DHT22;22480;50.546;12.292;2022-10-16T05:07:53;13.70;99.90
36458;DHT22;22480;50.546;12.292;2022-10-16T05:10:19;13.70;99.90
36458;DHT22;22480;50.546;12.292;2022-10-16T05:12:46;13.70;99.90
36458;DHT22;22480;50.546;12.292;2022-10-16T05:15:12;13.70;99.90
36458;DHT22;22480;50.546;12.292;2022-10-16T05:17:37;13.70;99.90
36458;DHT22;22480;50.546;12.292;2022-10-16T05:20:04;13.70;99.90
36458;DHT22;22480;50.546;12.292;2022-10-16T05:22:29;13.80;99.90
36458;DHT22;22480;50.546;12.292;2022-10-16T05:24:55;13.80;99.90
36458;DHT22;22480;50.546;12.292;2022-10-16T05:27:22;13.90;99.90
36458;DHT22;22480;50.546;12.292;2022-10-16T05:29:48;13.90;99.90
36458;DHT22;22480;50.546;12.292;2022-10-16T05:32:18;13.90;99.90
36458;DHT22;22480;50.546;12.292;2022-10-16T05:34:44;13.90;99.90
36458;DHT22;22480;50.546;12.292;2022-10-16T05:37:11;13.90;99.90
36458;DHT22;22480;50.546;12.292;2022-10-16T05:39:40;13.90;99.90
36458;DHT22;22480;50.546;12.292;2022-10-16T05:42:06;13.90;99.90
36458;DHT22;22480;50.546;12.292;2022-10-16T05:44:32;13.90;99.90
36458;DHT22;22480;50.546;12.292;2022-10-16T05:46:58;13.90;99.90
36458;DHT22;22480;50.546;12.292;2022-10-16T05:49:23;13.90;99.90
36458;DHT22;22480;50.546;12.292;2022-10-16T05:51:49;14.00;99.90
36458;DHT22;22480;50.546;12.292;2022-10-16T05:54:15;14.00;99.90
36458;DHT22;22480;50.546;12.292;2022-10-16T05:56:40;14.00;99.90
36458;DHT22;22480;50.546;12.292;2022-10-16T05:59:06;14.00;99.90
36458;DHT22;22480;50.546;12.292;2022-10-16T06:01:32;14.00;99.90
36458;DHT22;22480;50.546;12.292;2022-10-16T06:03:58;14.00;99.90
36458;DHT22;22480;50.546;12.292;2022-10-16T06:06:26;14.10;99.90
36458;DHT22;22480;50.546;12.292;2022-10-16T06:08:53;14.10;99.90
36458;DHT22;22480;50.546;12.292;2022-10-16T06:11:24;14.20;99.90
36458;DHT22;22480;50.546;12.292;2022-10-16T06:13:52;14.20;99.90
36458;DHT22;22480;50.546;12.292;2022-10-16T06:16:18;14.20;99.90
36458;DHT22;22480;50.546;12.292;2022-10-16T06:18:44;14.20;99.90
36458;DHT22;22480;50.546;12.292;2022-10-16T06:21:21;14.20;99.90
36458;DHT22;22480;50.546;12.292;2022-10-16T06:23:48;14.30;99.90
36458;DHT22;22480;50.546;12.292;2022-10-16T06:26:18;14.30;99.90
36458;DHT22;22480;50.546;12.292;2022-10-16T06:28:45;14.30;99.90
36458;DHT22;22480;50.546;12.292;2022-10-16T06:31:12;14.30;99.90
36458;DHT22;22480;50.546;12.292;2022-10-16T06:33:38;14.40;99.90
36458;DHT22;22480;50.546;12.292;2022-10-16T06:36:10;14.40;99.90
36458;DHT22;22480;50.546;12.292;2022-10-16T06:38:36;14.50;99.90
36458;DHT22;22480;50.546;12.292;2022-10-16T06:41:03;14.50;99.90
36458;DHT22;22480;50.546;12.292;2022-10-16T06:43:29;14.60;99.90
36458;DHT22;22480;50.546;12.292;2022-10-16T06:45:59;14.60;99.90
36458;DHT22;22480;50.546;12.292;2022-10-16T06:48:26;14.70;99.90
36458;DHT22;22480;50.546;12.292;2022-10-16T06:51:06;14.70;99.90
36458;DHT22;22480;50.546;12.292;2022-10-16T06:53:34;14.70;99.90
36458;DHT22;22480;50.546;12.292;2022-10-16T06:56:10;14.80;99.90
36458;DHT22;22480;50.546;12.292;2022-10-16T06:58:36;14.90;99.90
36458;DHT22;22480;50.546;12.292;2022-10-16T07:01:02;15.00;99.90
36458;DHT22;22480;50.546;12.292;2022-10-16T07:03:28;15.00;99.90
36458;DHT22;22480;50.546;12.292;2022-10-16T07:05:54;15.10;99.90
36458;DHT22;22480;50.546;12.292;2022-10-16T07:08:19;15.20;99.90
36458;DHT22;22480;50.546;12.292;2022-10-16T07:10:45;15.30;99.90
36458;DHT22;22480;50.546;12.292;2022-10-16T07:13:11;15.50;99.90
36458;DHT22;22480;50.546;12.292;2022-10-16T07:15:40;15.70;99.90
36458;DHT22;22480;50.546;12.292;2022-10-16T07:18:06;15.80;99.90
36458;DHT22;22480;50.546;12.292;2022-10-16T07:20:32;15.90;99.90
36458;DHT22;22480;50.546;12.292;2022-10-16T07:22:58;16.00;99.90
36458;DHT22;22480;50.546;12.292;2022-10-16T07:25:24;16.10;99.90
36458;DHT22;22480;50.546;12.292;2022-10-16T07:27:50;16.20;99.90
36458;DHT22;22480;50.546;12.292;2022-10-16T07:30:15;16.20;99.90
36458;DHT22;22480;50.546;12.292;2022-10-16T07:32:41;16.30;99.90
36458;DHT22;22480;50.546;12.292;2022-10-16T07:35:07;16.20;99.90
36458;DHT22;22480;50.546;12.292;2022-10-16T07:37:33;16.20;99.90
36458;DHT22;22480;50.546;12.292;2022-10-16T07:39:59;16.20;99.90
36458;DHT22;22480;50.546;12.292;2022-10-16T07:42:24;16.20;99.90
36458;DHT22;22480;50.546;12.292;2022-10-16T07:44:50;16.30;99.90
36458;DHT22;22480;50.546;12.292;2022-10-16T07:47:16;16.40;99.90
36458;DHT22;22480;50.546;12.292;2022-10-16T07:49:41;16.50;99.90
36458;DHT22;22480;50.546;12.292;2022-10-16T07:52:07;16.60;99.90
36458;DHT22;22480;50.546;12.292;2022-10-16T07:54:33;16.60;99.90
36458;DHT22;22480;50.546;12.292;2022-10-16T07:56:59;16.70;99.90
36458;DHT22;22480;50.546;12.292;2022-10-16T07:59:24;16.80;99.90
36458;DHT22;22480;50.546;12.292;2022-10-16T08:01:50;16.90;99.90
36458;DHT22;22480;50.546;12.292;2022-10-16T08:04:16;17.00;99.90
36458;DHT22;22480;50.546;12.292;2022-10-16T08:06:42;17.20;99.90
36458;DHT22;22480;50.546;12.292;2022-10-16T08:09:08;17.30;99.90
36458;DHT22;22480;50.546;12.292;2022-10-16T08:11:34;17.40;99.90
36458;DHT22;22480;50.546;12.292;2022-10-16T08:14:00;17.50;99.90
36458;DHT22;22480;50.546;12.292;2022-10-16T08:16:26;17.60;99.90
36458;DHT22;22480;50.546;12.292;2022-10-16T08:18:51;17.60;99.90
36458;DHT22;22480;50.546;12.292;2022-10-16T08:21:20;17.80;99.90
36458;DHT22;22480;50.546;12.292;2022-10-16T08:23:47;17.80;99.90
36458;DHT22;22480;50.546;12.292;2022-10-16T08:26:13;17.80;99.90
36458;DHT22;22480;50.546;12.292;2022-10-16T08:28:39;17.70;99.90
36458;DHT22;22480;50.546;12.292;2022-10-16T08:31:09;17.70;99.90
36458;DHT22;22480;50.546;12.292;2022-10-16T08:33:35;17.70;99.90
36458;DHT22;22480;50.546;12.292;2022-10-16T08:36:02;17.60;99.90
36458;DHT22;22480;50.546;12.292;2022-10-16T08:38:28;17.70;99.90
36458;DHT22;22480;50.546;12.292;2022-10-16T08:41:01;17.80;99.90
36458;DHT22;22480;50.546;12.292;2022-10-16T08:43:44;17.90;99.90
36458;DHT22;22480;50.546;12.292;2022-10-16T08:46:44;18.20;99.90
36458;DHT22;22480;50.546;12.292;2022-10-16T08:49:14;18.40;99.90
36458;DHT22;22480;50.546;12.292;2022-10-16T08:51:41;18.50;99.90
36458;DHT22;22480;50.546;12.292;2022-10-16T08:54:29;18.60;99.90
36458;DHT22;22480;50.546;12.292;2022-10-16T08:56:57;18.50;99.90
36458;DHT22;22480;50.546;12.292;2022-10-16T08:59:26;18.40;99.90
36458;DHT22;22480;50.546;12.292;2022-10-16T09:01:52;18.50;99.90
36458;DHT22;22480;50.546;12.292;2022-10-16T09:09:53;18.40;99.90
36458;DHT22;22480;50.546;12.292;2022-10-16T09:15:39;18.70;99.90
36458;DHT22;22480;50.546;12.292;2022-10-16T09:20:49;18.80;99.90
36458;DHT22;22480;50.546;12.292;2022-10-16T09:25:44;18.80;99.90
36458;DHT22;22480;50.546;12.292;2022-10-16T09:28:10;18.60;99.90
36458;DHT22;22480;50.546;12.292;2022-10-16T09:30:37;18.60;99.90
36458;DHT22;22480;50.546;12.292;2022-10-16T09:33:05;18.60;99.90
36458;DHT22;22480;50.546;12.292;2022-10-16T09:38:01;18.20;99.90
36458;DHT22;22480;50.546;12.292;2022-10-16T09:40:38;18.20;99.90
36458;DHT22;22480;50.546;12.292;2022-10-16T09:43:25;18.20;99.90
36458;DHT22;22480;50.546;12.292;2022-10-16T09:48:21;18.10;99.90
36458;DHT22;22480;50.546;12.292;2022-10-16T09:51:02;18.20;99.90
36458;DHT22;22480;50.546;12.292;2022-10-16T09:53:40;18.10;99.90
36458;DHT22;22480;50.546;12.292;2022-10-16T09:56:06;18.10;99.90
36458;DHT22;22480;50.546;12.292;2022-10-16T09:58:33;18.10;99.90
36458;DHT22;22480;50.546;12.292;2022-10-16T10:00:59;18.20;99.90
36458;DHT22;22480;50.546;12.292;2022-10-16T10:03:35;18.40;99.90
36458;DHT22;22480;50.546;12.292;2022-10-16T10:08:56;18.60;99.90
36458;DHT22;22480;50.546;12.292;2022-10-16T10:16:44;19.20;99.90
36458;DHT22;22480;50.546;12.292;2022-10-16T10:19:21;19.30;99.90
36458;DHT22;22480;50.546;12.292;2022-10-16T10:21:47;19.50;99.90
36458;DHT22;22480;50.546;12.292;2022-10-16T10:24:15;19.60;99.90
36458;DHT22;22480;50.546;12.292;2022-10-16T10:26:59;19.50;99.90
36458;DHT22;22480;50.546;12.292;2022-10-16T10:29:35;19.60;99.90
36458;DHT22;22480;50.546;12.292;2022-10-16T10:34:45;19.90;99.90
36458;DHT22;22480;50.546;12.292;2022-10-16T10:39:48;19.80;99.90
36458;DHT22;22480;50.546;12.292;2022-10-16T10:42:31;19.90;99.90
36458;DHT22;22480;50.546;12.292;2022-10-16T10:48:39;20.10;99.90
36458;DHT22;22480;50.546;12.292;2022-10-16T10:50:53;20.30;99.90
36458;DHT22;22480;50.546;12.292;2022-10-16T11:06:53;22.10;99.90
36458;DHT22;22480;50.546;12.292;2022-10-16T11:09:45;21.50;99.90
36458;DHT22;22480;50.546;12.292;2022-10-16T11:14:46;20.60;99.90
36458;DHT22;22480;50.546;12.292;2022-10-16T11:17:19;20.60;99.90
36458;DHT22;22480;50.546;12.292;2022-10-16T11:22:32;20.70;99.90
36458;DHT22;22480;50.546;12.292;2022-10-16T11:27:50;20.70;99.90
36458;DHT22;22480;50.546;12.292;2022-10-16T11:30:24;21.00;99.90
36458;DHT22;22480;50.546;12.292;2022-10-16T11:33:27;21.00;99.90
36458;DHT22;22480;50.546;12.292;2022-10-16T11:36:38;21.00;99.90
36458;DHT22;22480;50.546;12.292;2022-10-16T11:39:11;21.00;99.90
36458;DHT22;22480;50.546;12.292;2022-10-16T11:46:46;21.10;99.90
36458;DHT22;22480;50.546;12.292;2022-10-16T11:49:21;21.20;99.90
36458;DHT22;22480;50.546;12.292;2022-10-16T11:57:02;21.40;99.90
36458;DHT22;22480;50.546;12.292;2022-10-16T12:08:12;21.10;99.90
36458;DHT22;22480;50.546;12.292;2022-10-16T12:10:40;20.70;99.90
36458;DHT22;22480;50.546;12.292;2022-10-16T12:18:44;20.10;99.90
36458;DHT22;22480;50.546;12.292;2022-10-16T12:21:11;19.90;99.90
36458;DHT22;22480;50.546;12.292;2022-10-16T12:23:55;19.60;99.90
36458;DHT22;22480;50.546;12.292;2022-10-16T12:26:39;19.40;99.90
36458;DHT22;22480;50.546;12.292;2022-10-16T12:31:44;19.00;99.90
36458;DHT22;22480;50.546;12.292;2022-10-16T12:34:30;18.90;99.90
36458;DHT22;22480;50.546;12.292;2022-10-16T12:37:18;18.70;99.90
36458;DHT22;22480;50.546;12.292;2022-10-16T12:39:47;18.50;99.90
36458;DHT22;22480;50.546;12.292;2022-10-16T12:44:55;18.10;99.90
36458;DHT22;22480;50.546;12.292;2022-10-16T12:49:57;17.70;99.90
36458;DHT22;22480;50.546;12.292;2022-10-16T12:52:37;17.50;99.90
36458;DHT22;22480;50.546;12.292;2022-10-16T12:55:04;17.40;99.90
36458;DHT22;22480;50.546;12.292;2022-10-16T13:00:23;17.10;99.90
36458;DHT22;22480;50.546;12.292;2022-10-16T13:24:35;17.70;99.90
36458;DHT22;22480;50.546;12.292;2022-10-16T13:30:19;20.00;99.90
36458;DHT22;22480;50.546;12.292;2022-10-16T13:33:16;21.30;99.90
36458;DHT22;22480;50.546;12.292;2022-10-16T13:36:04;22.30;99.90
36458;DHT22;22480;50.546;12.292;2022-10-16T13:38:33;22.00;99.90
36458;DHT22;22480;50.546;12.292;2022-10-16T13:41:11;21.20;99.90
36458;DHT22;22480;50.546;12.292;2022-10-16T13:43:45;20.50;99.90
36458;DHT22;22480;50.546;12.292;2022-10-16T13:48:41;19.30;99.90
36458;DHT22;22480;50.546;12.292;2022-10-16T13:51:14;19.10;99.90
36458;DHT22;22480;50.546;12.292;2022-10-16T13:53:41;19.40;99.90
36458;DHT22;22480;50.546;12.292;2022-10-16T13:56:12;20.50;99.90
36458;DHT22;22480;50.546;12.292;2022-10-16T13:58:38;22.10;99.90
36458;DHT22;22480;50.546;12.292;2022-10-16T14:01:24;23.10;99.90
36458;DHT22;22480;50.546;12.292;2022-10-16T14:03:51;23.90;99.90
36458;DHT22;22480;50.546;12.292;2022-10-16T14:06:20;24.30;99.90
36458;DHT22;22480;50.546;12.292;2022-10-16T14:09:14;25.00;99.90
36458;DHT22;22480;50.546;12.292;2022-10-16T14:11:46;25.00;99.90
36458;DHT22;22480;50.546;12.292;2022-10-16T14:14:14;24.60;99.90
36458;DHT22;22480;50.546;12.292;2022-10-16T14:16:42;24.50;99.90
36458;DHT22;22480;50.546;12.292;2022-10-16T14:19:34;24.30;99.90
36458;DHT22;22480;50.546;12.292;2022-10-16T14:22:01;24.30;99.90
36458;DHT22;22480;50.546;12.292;2022-10-16T14:24:33;24.70;99.90
36458;DHT22;22480;50.546;12.292;2022-10-16T14:27:00;25.00;99.90
36458;DHT22;22480;50.546;12.292;2022-10-16T14:29:27;24.80;99.90
36458;DHT22;22480;50.546;12.292;2022-10-16T14:31:58;25.00;99.90
36458;DHT22;22480;50.546;12.292;2022-10-16T14:34:24;25.20;99.90
36458;DHT22;22480;50.546;12.292;2022-10-16T14:36:53;25.50;99.90
36458;DHT22;22480;50.546;12.292;2022-10-16T14:39:23;25.70;99.90
36458;DHT22;22480;50.546;12.292;2022-10-16T14:41:55;26.10;99.90
36458;DHT22;22480;50.546;12.292;2022-10-16T14:44:30;26.20;99.90
36458;DHT22;22480;50.546;12.292;2022-10-16T14:46:57;26.20;99.90
36458;DHT22;22480;50.546;12.292;2022-10-16T14:49:23;26.30;99.90
36458;DHT22;22480;50.546;12.292;2022-10-16T14:51:50;26.30;99.90
36458;DHT22;22480;50.546;12.292;2022-10-16T14:54:17;26.30;99.90
36458;DHT22;22480;50.546;12.292;2022-10-16T14:56:57;26.20;99.90
36458;DHT22;22480;50.546;12.292;2022-10-16T15:01:58;26.60;99.90
36458;DHT22;22480;50.546;12.292;2022-10-16T15:04:23;26.60;99.90
36458;DHT22;22480;50.546;12.292;2022-10-16T15:06:49;26.20;99.90
36458;DHT22;22480;50.546;12.292;2022-10-16T15:09:15;26.30;99.90
36458;DHT22;22480;50.546;12.292;2022-10-16T15:11:42;26.60;99.90
36458;DHT22;22480;50.546;12.292;2022-10-16T15:14:11;26.40;99.90
36458;DHT22;22480;50.546;12.292;2022-10-16T15:16:38;25.80;99.90
36458;DHT22;22480;50.546;12.292;2022-10-16T15:19:03;25.40;99.90
36458;DHT22;22480;50.546;12.292;2022-10-16T15:21:31;24.90;99.90
36458;DHT22;22480;50.546;12.292;2022-10-16T15:23:58;24.30;99.90
36458;DHT22;22480;50.546;12.292;2022-10-16T15:26:25;23.50;99.90
36458;DHT22;22480;50.546;12.292;2022-10-16T15:28:51;22.70;99.90
36458;DHT22;22480;50.546;12.292;2022-10-16T15:31:18;21.80;99.90
36458;DHT22;22480;50.546;12.292;2022-10-16T15:33:44;21.10;99.90
36458;DHT22;22480;50.546;12.292;2022-10-16T15:36:13;20.50;99.90
36458;DHT22;22480;50.546;12.292;2022-10-16T15:38:39;20.20;99.90
36458;DHT22;22480;50.546;12.292;2022-10-16T15:41:05;19.80;99.90
36458;DHT22;22480;50.546;12.292;2022-10-16T15:43:31;19.50;99.90
36458;DHT22;22480;50.546;12.292;2022-10-16T15:46:03;19.10;99.90
36458;DHT22;22480;50.546;12.292;2022-10-16T15:48:30;18.70;99.90
36458;DHT22;22480;50.546;12.292;2022-10-16T15:50:56;18.40;99.90
36458;DHT22;22480;50.546;12.292;2022-10-16T15:53:22;18.20;99.90
36458;DHT22;22480;50.546;12.292;2022-10-16T15:55:48;17.90;99.90
36458;DHT22;22480;50.546;12.292;2022-10-16T15:58:14;17.70;99.90
36458;DHT22;22480;50.546;12.292;2022-10-16T16:00:40;17.40;99.90
36458;DHT22;22480;50.546;12.292;2022-10-16T16:03:06;17.20;99.90
36458;DHT22;22480;50.546;12.292;2022-10-16T16:05:32;17.00;99.90
36458;DHT22;22480;50.546;12.292;2022-10-16T16:08:00;16.90;99.90
36458;DHT22;22480;50.546;12.292;2022-10-16T16:10:26;16.70;99.90
36458;DHT22;22480;50.546;12.292;2022-10-16T16:12:52;16.40;99.90
36458;DHT22;22480;50.546;12.292;2022-10-16T16:15:20;16.40;99.90
36458;DHT22;22480;50.546;12.292;2022-10-16T16:17:46;16.30;99.90
36458;DHT22;22480;50.546;12.292;2022-10-16T16:20:12;16.30;99.90
36458;DHT22;22480;50.546;12.292;2022-10-16T16:22:38;16.20;99.90
36458;DHT22;22480;50.546;12.292;2022-10-16T16:25:04;16.20;99.90
36458;DHT22;22480;50.546;12.292;2022-10-16T16:27:30;16.10;99.90
36458;DHT22;22480;50.546;12.292;2022-10-16T16:30:00;16.10;99.90
36458;DHT22;22480;50.546;12.292;2022-10-16T16:32:26;15.90;99.90
36458;DHT22;22480;50.546;12.292;2022-10-16T16:34:51;15.80;99.90
36458;DHT22;22480;50.546;12.292;2022-10-16T16:37:17;15.60;99.90
36458;DHT22;22480;50.546;12.292;2022-10-16T16:39:43;15.60;99.90
36458;DHT22;22480;50.546;12.292;2022-10-16T16:42:09;15.40;99.90
36458;DHT22;22480;50.546;12.292;2022-10-16T16:44:36;15.40;99.90
36458;DHT22;22480;50.546;12.292;2022-10-16T16:47:03;15.30;99.90
36458;DHT22;22480;50.546;12.292;2022-10-16T16:49:29;15.20;99.90
36458;DHT22;22480;50.546;12.292;2022-10-16T16:51:55;15.10;99.90
36458;DHT22;22480;50.546;12.292;2022-10-16T16:54:21;15.00;99.90
36458;DHT22;22480;50.546;12.292;2022-10-16T16:56:46;15.00;99.90
36458;DHT22;22480;50.546;12.292;2022-10-16T16:59:18;15.00;99.90
36458;DHT22;22480;50.546;12.292;2022-10-16T17:01:46;15.00;99.90
36458;DHT22;22480;50.546;12.292;2022-10-16T17:04:12;15.10;99.90
36458;DHT22;22480;50.546;12.292;2022-10-16T17:06:41;15.10;99.90
36458;DHT22;22480;50.546;12.292;2022-10-16T17:09:07;15.20;99.90
36458;DHT22;22480;50.546;12.292;2022-10-16T17:11:34;15.30;99.90
36458;DHT22;22480;50.546;12.292;2022-10-16T17:14:00;15.30;99.90
36458;DHT22;22480;50.546;12.292;2022-10-16T17:16:31;15.30;99.90
36458;DHT22;22480;50.546;12.292;2022-10-16T17:19:11;15.40;99.90
36458;DHT22;22480;50.546;12.292;2022-10-16T17:21:37;15.50;99.90
36458;DHT22;22480;50.546;12.292;2022-10-16T17:24:03;15.50;99.90
36458;DHT22;22480;50.546;12.292;2022-10-16T17:26:30;15.50;99.90
36458;DHT22;22480;50.546;12.292;2022-10-16T17:28:58;15.50;99.90
36458;DHT22;22480;50.546;12.292;2022-10-16T17:31:27;15.50;99.90
36458;DHT22;22480;50.546;12.292;2022-10-16T17:33:53;15.50;99.90
36458;DHT22;22480;50.546;12.292;2022-10-16T17:36:20;15.60;99.90
36458;DHT22;22480;50.546;12.292;2022-10-16T17:38:46;15.50;99.90